Eikamaru No.2 — JD3056 — position and weather

sailwx.info

Track history (hours):
 
Tides and Currents Weather Stations Pressure Air Temp Water Temp Dewpoint Dewpoint Depression Visibility Wind Speed Wind Dir Waves Ship Positions

Eikamaru No.2

Last reported at 2016-Aug-23 00:18 UTC. Time now 2016-Aug-24 16:17 UTC.
Position N 35°06' E 139°40'.

Length 60 m; draft 3.3 m.

Type: Tanker. MMSI: 431001342.

Date/timePositionNaut miles runAvg speedWind from/ knotsBaromVisibWave heightAir tempDewpointWater temp
2016-Aug-23 00:18N 35°06' E 139°40'7 9.7
2016-Aug-22 23:33N 35°12' E 139°45'1010.0
2016-Aug-22 22:34N 35°21' E 139°42'1010.1
2016-Aug-22 21:33N 35°29' E 139°50'4 3.6
2016-Aug-22 20:33N 35°28' E 139°55'0 0.0
2016-Aug-22 19:33N 35°28' E 139°55'0 0.0
2016-Aug-22 18:34N 35°28' E 139°55'0 0.0
2016-Aug-22 17:33N 35°28' E 139°55'0 0.0
2016-Aug-22 16:33N 35°28' E 139°55'0 0.0
2016-Aug-22 15:34N 35°28' E 139°55'0 0.1
2016-Aug-22 14:33N 35°28' E 139°55'0 0.0
2016-Aug-22 13:33N 35°28' E 139°55'0 0.0
2016-Aug-22 12:32N 35°28' E 139°55'0 0.0
2016-Aug-22 11:33N 35°28' E 139°55'0 0.0
2016-Aug-22 10:33N 35°28' E 139°55'0 0.0
2016-Aug-22 09:27N 35°28' E 139°55'0 0.0
2016-Aug-22 08:30N 35°28' E 139°55'0 0.0
2016-Aug-22 07:33N 35°28' E 139°55'0 0.0
2016-Aug-22 06:31N 35°28' E 139°55'0 0.0
2016-Aug-22 05:33N 35°28' E 139°55'0 0.1
2016-Aug-22 04:31N 35°28' E 139°54'0 0.0
2016-Aug-22 03:34N 35°28' E 139°54'0 0.0
2016-Aug-22 02:32N 35°28' E 139°54'0 0.0
2016-Aug-22 01:33N 35°28' E 139°54'0 0.0
2016-Aug-22 00:34N 35°28' E 139°54'0 0.0
2016-Aug-21 23:31N 35°28' E 139°54'0 0.1
2016-Aug-21 22:33N 35°28' E 139°55'0 0.0
2016-Aug-21 21:28N 35°28' E 139°55'0 0.0
2016-Aug-21 20:32N 35°28' E 139°55'0 0.0
2016-Aug-21 19:33N 35°28' E 139°55'0 0.0
2016-Aug-21 18:32N 35°28' E 139°55'0 0.0
2016-Aug-21 17:33N 35°28' E 139°55'0 0.0
2016-Aug-21 16:33N 35°28' E 139°55'0 0.0
2016-Aug-21 15:34N 35°28' E 139°55'0 0.0
2016-Aug-21 14:33N 35°28' E 139°55'0 0.0
2016-Aug-21 13:34N 35°28' E 139°55'0 0.0
2016-Aug-21 12:28N 35°28' E 139°55'0 0.0
2016-Aug-21 11:31N 35°28' E 139°55'0 0.0
2016-Aug-21 10:33N 35°28' E 139°55'0 0.0
2016-Aug-21 09:30N 35°28' E 139°55'0 0.0
2016-Aug-21 08:31N 35°28' E 139°55'0 0.1
2016-Aug-21 07:33N 35°28' E 139°55'0 0.0
2016-Aug-21 06:33N 35°28' E 139°55'0 0.1
2016-Aug-21 05:33N 35°28' E 139°55'0 0.0
2016-Aug-21 04:33N 35°28' E 139°55'0 0.0
2016-Aug-21 03:33N 35°28' E 139°55'0 0.0
2016-Aug-21 02:33N 35°28' E 139°55'5 5.2
2016-Aug-21 01:34N 35°28' E 140°01'0 0.0
2016-Aug-21 00:33N 35°28' E 140°01'0 0.0
2016-Aug-20 23:33N 35°28' E 140°01'0 0.0
2016-Aug-20 22:33N 35°28' E 140°01'0 0.5
2016-Aug-20 21:33N 35°29' E 140°01'1 1.4
2016-Aug-20 20:33N 35°29' E 139°59'0 0.0
2016-Aug-20 19:33N 35°29' E 139°59'0 0.0
2016-Aug-20 18:33N 35°29' E 139°59'0 0.0
2016-Aug-20 17:33N 35°29' E 139°59'0 0.0
2016-Aug-20 16:33N 35°29' E 139°59'0 0.0
2016-Aug-20 15:33N 35°29' E 139°59'0 0.0
2016-Aug-20 14:33N 35°29' E 139°59'0 0.0
2016-Aug-20 13:33N 35°29' E 139°59'7 7.4
2016-Aug-20 12:33N 35°37' E 139°59'4 3.8
2016-Aug-20 11:33N 35°41' E 139°59'0 0.0
2016-Aug-20 10:33N 35°41' E 139°59'0 0.0
2016-Aug-20 09:33N 35°41' E 139°59'0 0.0
2016-Aug-20 08:33N 35°41' E 139°59'0 0.0
2016-Aug-20 07:34N 35°41' E 139°59'0 0.0
2016-Aug-20 06:33N 35°41' E 139°59'0 0.0
2016-Aug-20 05:33N 35°41' E 139°59'0 0.0
2016-Aug-20 04:33N 35°41' E 139°59'0 0.0
2016-Aug-20 03:33N 35°41' E 139°59'4 4.2
2016-Aug-20 02:33N 35°37' E 139°56'4 4.2
2016-Aug-20 01:33N 35°41' E 139°57'0 0.0
2016-Aug-20 00:33N 35°41' E 139°57'0 0.0
2016-Aug-19 23:33N 35°41' E 139°57'5 4.6
2016-Aug-19 22:33N 35°37' E 139°56'1 1.3
2016-Aug-19 21:33N 35°36' E 139°55'0 0.0
2016-Aug-19 20:33N 35°36' E 139°55'0 0.0
2016-Aug-19 19:33N 35°36' E 139°55'0 0.0
2016-Aug-19 18:33N 35°36' E 139°55'0 0.0
2016-Aug-19 17:33N 35°36' E 139°55'0 0.0
2016-Aug-19 16:33N 35°36' E 139°55'0 0.1
2016-Aug-19 15:33N 35°36' E 139°55'0 0.0
2016-Aug-19 14:33N 35°36' E 139°55'0 0.0
2016-Aug-19 13:33N 35°36' E 139°55'0 0.0
2016-Aug-19 12:33N 35°36' E 139°55'0 0.0
2016-Aug-19 11:33N 35°36' E 139°55'0 0.0
2016-Aug-19 10:33N 35°36' E 139°55'0 0.0
2016-Aug-19 09:33N 35°36' E 139°55'0 0.0
2016-Aug-19 08:33N 35°36' E 139°55'0 0.0
2016-Aug-19 07:33N 35°36' E 139°55'0 0.0
2016-Aug-19 06:33N 35°36' E 139°55'0 0.0
2016-Aug-19 05:33N 35°36' E 139°55'0 0.0
2016-Aug-19 04:33N 35°36' E 139°55'0 0.0
2016-Aug-19 03:33N 35°36' E 139°55'5 4.8
2016-Aug-19 02:33N 35°40' E 139°57'1 0.5
2016-Aug-19 01:33N 35°40' E 139°56'0 0.0
2016-Aug-19 00:33N 35°40' E 139°56'3 2.9
2016-Aug-18 23:33N 35°38' E 139°59'1110.9
2016-Aug-18 22:33N 35°29' E 139°52'1110.6
2016-Aug-18 21:33N 35°20' E 139°44'1010.2
2016-Aug-18 20:34N 35°10' E 139°46'  
Track history (hours):
 
Tides and Currents Weather Stations Pressure Air Temp Water Temp Dewpoint Dewpoint Depression Visibility Wind Speed Wind Dir Waves Ship Positions

Eikamaru No.2

Last reported at 2016-Aug-23 00:18 UTC. Time now 2016-Aug-24 16:17 UTC.
Position N 35°06' E 139°40'.

Length 60 m; draft 3.3 m.

Type: Tanker. MMSI: 431001342.

Date/timePositionNaut miles runAvg speedWind from/ knotsBaromVisibWave heightAir tempDewpointWater temp
2016-Aug-23 00:18N 35°06' E 139°40'7 9.7
2016-Aug-22 23:33N 35°12' E 139°45'1010.0
2016-Aug-22 22:34N 35°21' E 139°42'1010.1
2016-Aug-22 21:33N 35°29' E 139°50'4 3.6
2016-Aug-22 20:33N 35°28' E 139°55'0 0.0
2016-Aug-22 19:33N 35°28' E 139°55'0 0.0
2016-Aug-22 18:34N 35°28' E 139°55'0 0.0
2016-Aug-22 17:33N 35°28' E 139°55'0 0.0
2016-Aug-22 16:33N 35°28' E 139°55'0 0.0
2016-Aug-22 15:34N 35°28' E 139°55'0 0.1
2016-Aug-22 14:33N 35°28' E 139°55'0 0.0
2016-Aug-22 13:33N 35°28' E 139°55'0 0.0
2016-Aug-22 12:32N 35°28' E 139°55'0 0.0
2016-Aug-22 11:33N 35°28' E 139°55'0 0.0
2016-Aug-22 10:33N 35°28' E 139°55'0 0.0
2016-Aug-22 09:27N 35°28' E 139°55'0 0.0
2016-Aug-22 08:30N 35°28' E 139°55'0 0.0
2016-Aug-22 07:33N 35°28' E 139°55'0 0.0
2016-Aug-22 06:31N 35°28' E 139°55'0 0.0
2016-Aug-22 05:33N 35°28' E 139°55'0 0.1
2016-Aug-22 04:31N 35°28' E 139°54'0 0.0
2016-Aug-22 03:34N 35°28' E 139°54'0 0.0
2016-Aug-22 02:32N 35°28' E 139°54'0 0.0
2016-Aug-22 01:33N 35°28' E 139°54'0 0.0
2016-Aug-22 00:34N 35°28' E 139°54'0 0.0
2016-Aug-21 23:31N 35°28' E 139°54'0 0.1
2016-Aug-21 22:33N 35°28' E 139°55'0 0.0
2016-Aug-21 21:28N 35°28' E 139°55'0 0.0
2016-Aug-21 20:32N 35°28' E 139°55'0 0.0
2016-Aug-21 19:33N 35°28' E 139°55'0 0.0
2016-Aug-21 18:32N 35°28' E 139°55'0 0.0
2016-Aug-21 17:33N 35°28' E 139°55'0 0.0
2016-Aug-21 16:33N 35°28' E 139°55'0 0.0
2016-Aug-21 15:34N 35°28' E 139°55'0 0.0
2016-Aug-21 14:33N 35°28' E 139°55'0 0.0
2016-Aug-21 13:34N 35°28' E 139°55'0 0.0
2016-Aug-21 12:28N 35°28' E 139°55'0 0.0
2016-Aug-21 11:31N 35°28' E 139°55'0 0.0
2016-Aug-21 10:33N 35°28' E 139°55'0 0.0
2016-Aug-21 09:30N 35°28' E 139°55'0 0.0
2016-Aug-21 08:31N 35°28' E 139°55'0 0.1
2016-Aug-21 07:33N 35°28' E 139°55'0 0.0
2016-Aug-21 06:33N 35°28' E 139°55'0 0.1
2016-Aug-21 05:33N 35°28' E 139°55'0 0.0
2016-Aug-21 04:33N 35°28' E 139°55'0 0.0
2016-Aug-21 03:33N 35°28' E 139°55'0 0.0
2016-Aug-21 02:33N 35°28' E 139°55'5 5.2
2016-Aug-21 01:34N 35°28' E 140°01'0 0.0
2016-Aug-21 00:33N 35°28' E 140°01'0 0.0
2016-Aug-20 23:33N 35°28' E 140°01'0 0.0
2016-Aug-20 22:33N 35°28' E 140°01'0 0.5
2016-Aug-20 21:33N 35°29' E 140°01'1 1.4
2016-Aug-20 20:33N 35°29' E 139°59'0 0.0
2016-Aug-20 19:33N 35°29' E 139°59'0 0.0
2016-Aug-20 18:33N 35°29' E 139°59'0 0.0
2016-Aug-20 17:33N 35°29' E 139°59'0 0.0
2016-Aug-20 16:33N 35°29' E 139°59'0 0.0
2016-Aug-20 15:33N 35°29' E 139°59'0 0.0
2016-Aug-20 14:33N 35°29' E 139°59'0 0.0
2016-Aug-20 13:33N 35°29' E 139°59'7 7.4
2016-Aug-20 12:33N 35°37' E 139°59'4 3.8
2016-Aug-20 11:33N 35°41' E 139°59'0 0.0
2016-Aug-20 10:33N 35°41' E 139°59'0 0.0
2016-Aug-20 09:33N 35°41' E 139°59'0 0.0
2016-Aug-20 08:33N 35°41' E 139°59'0 0.0
2016-Aug-20 07:34N 35°41' E 139°59'0 0.0
2016-Aug-20 06:33N 35°41' E 139°59'0 0.0
2016-Aug-20 05:33N 35°41' E 139°59'0 0.0
2016-Aug-20 04:33N 35°41' E 139°59'0 0.0
2016-Aug-20 03:33N 35°41' E 139°59'4 4.2
2016-Aug-20 02:33N 35°37' E 139°56'4 4.2
2016-Aug-20 01:33N 35°41' E 139°57'0 0.0
2016-Aug-20 00:33N 35°41' E 139°57'0 0.0
2016-Aug-19 23:33N 35°41' E 139°57'5 4.6
2016-Aug-19 22:33N 35°37' E 139°56'1 1.3
2016-Aug-19 21:33N 35°36' E 139°55'0 0.0
2016-Aug-19 20:33N 35°36' E 139°55'0 0.0
2016-Aug-19 19:33N 35°36' E 139°55'0 0.0
2016-Aug-19 18:33N 35°36' E 139°55'0 0.0
2016-Aug-19 17:33N 35°36' E 139°55'0 0.0
2016-Aug-19 16:33N 35°36' E 139°55'0 0.1
2016-Aug-19 15:33N 35°36' E 139°55'0 0.0
2016-Aug-19 14:33N 35°36' E 139°55'0 0.0
2016-Aug-19 13:33N 35°36' E 139°55'0 0.0
2016-Aug-19 12:33N 35°36' E 139°55'0 0.0
2016-Aug-19 11:33N 35°36' E 139°55'0 0.0
2016-Aug-19 10:33N 35°36' E 139°55'0 0.0
2016-Aug-19 09:33N 35°36' E 139°55'0 0.0
2016-Aug-19 08:33N 35°36' E 139°55'0 0.0
2016-Aug-19 07:33N 35°36' E 139°55'0 0.0
2016-Aug-19 06:33N 35°36' E 139°55'0 0.0
2016-Aug-19 05:33N 35°36' E 139°55'0 0.0
2016-Aug-19 04:33N 35°36' E 139°55'0 0.0
2016-Aug-19 03:33N 35°36' E 139°55'5 4.8
2016-Aug-19 02:33N 35°40' E 139°57'1 0.5
2016-Aug-19 01:33N 35°40' E 139°56'0 0.0
2016-Aug-19 00:33N 35°40' E 139°56'3 2.9
2016-Aug-18 23:33N 35°38' E 139°59'1110.9
2016-Aug-18 22:33N 35°29' E 139°52'1110.6
2016-Aug-18 21:33N 35°20' E 139°44'1010.2
2016-Aug-18 20:34N 35°10' E 139°46'  

Dump ship's entire track history